KMFE 220312Z 2203/2224 13014KT P6SM BKN019 OVC024
FM221300 15012G23KT P6SM BKN030
FM221700 15015G26KT P6SM BKN150
From batch tds/tafs/production/2024/5/22/h03_m20_tafs.cache.xml.gz
Issued (24 days ago)
Forecasts
2203/2213 13014KT 6+SM BKN1900 OVC2400

---
fcst_time_to: '2024-05-22T13:00:00Z'
sky_condition:
- - sky_cover: BKN
    cloud_base_ft_agl: '1900'
- - sky_cover: OVC
    cloud_base_ft_agl: '2400'
wind_speed_kt: '14'
fcst_time_from: '2024-05-22T03:00:00Z'
wind_dir_degrees: '130'
visibility_statute_mi: 6+

FM221300 15012G23KT 6+SM BKN3000

---
fcst_time_to: '2024-05-22T17:00:00Z'
wind_gust_kt: '23'
sky_condition:
- sky_cover: BKN
  cloud_base_ft_agl: '3000'
wind_speed_kt: '12'
fcst_time_from: '2024-05-22T13:00:00Z'
change_indicator: FM
wind_dir_degrees: '150'
visibility_statute_mi: 6+

FM221700 15015G26KT 6+SM BKN15000

---
fcst_time_to: '2024-05-23T00:00:00Z'
wind_gust_kt: '26'
sky_condition:
- sky_cover: BKN
  cloud_base_ft_agl: '15000'
wind_speed_kt: '15'
fcst_time_from: '2024-05-22T17:00:00Z'
change_indicator: FM
wind_dir_degrees: '150'
visibility_statute_mi: 6+

talk